Time;durP1;ratioP1;P1;durP2;ratioP2;P2;SDS_P1;SDS_P2;PMS_P1;PMS_P2;Temp;Humidity;BMP_temperature;BMP_pressure;BME280_temperature;BME280_humidity;BME280_pressure;Samples;Min_cycle;Max_cycle;Signal;HPM_P1;HPM_P2
2022/10/23 00:01:38;;;;;;;;;;;10.80;99.90;;;;;;5024971;28;19953;-71
2022/10/23 00:04:06;;;;;;;;;;;10.80;99.90;;;;;;4994606;28;196811;-74
2022/10/23 00:06:33;;;;;;;;;;;10.70;99.90;;;;;;5057806;28;19924;-74
2022/10/23 00:09:00;;;;;;;;;;;10.70;99.90;;;;;;4959883;28;159493;-73
2022/10/23 00:11:28;;;;;;;;;;;10.80;99.90;;;;;;5026326;28;19925;-72
2022/10/23 00:13:57;;;;;;;;;;;10.70;99.90;;;;;;4973951;28;215072;-73
2022/10/23 00:16:25;;;;;;;;;;;10.70;99.90;;;;;;5023737;28;19925;-72
2022/10/23 00:18:51;;;;;;;;;;;10.70;99.90;;;;;;4990658;28;210675;-72
2022/10/23 00:21:17;;;;;;;;;;;10.60;99.90;;;;;;5029525;28;19921;-74
2022/10/23 00:23:43;;;;;;;;;;;10.60;99.90;;;;;;4977847;28;266427;-73
2022/10/23 00:26:13;;;;;;;;;;;10.60;99.90;;;;;;5027348;28;19931;-74
2022/10/23 00:28:40;;;;;;;;;;;10.60;99.90;;;;;;4973318;28;210729;-73
2022/10/23 00:31:06;;;;;;;;;;;10.60;99.90;;;;;;5022300;28;19921;-73
2022/10/23 00:33:32;;;;;;;;;;;10.60;99.90;;;;;;4975235;28;179007;-73
2022/10/23 00:35:58;;;;;;;;;;;10.60;99.90;;;;;;5026258;28;19921;-73
2022/10/23 00:38:24;;;;;;;;;;;10.60;99.90;;;;;;4978132;28;225821;-73
2022/10/23 00:40:50;;;;;;;;;;;10.60;99.90;;;;;;5049985;28;19917;-72
2022/10/23 00:43:17;;;;;;;;;;;10.60;99.90;;;;;;4976316;28;208890;-73
2022/10/23 00:45:46;;;;;;;;;;;10.70;99.90;;;;;;5027970;28;19927;-72
2022/10/23 00:48:12;;;;;;;;;;;10.60;99.90;;;;;;4958163;28;210476;-73
2022/10/23 00:50:41;;;;;;;;;;;10.60;99.90;;;;;;5007941;28;20306;-72
2022/10/23 00:53:08;;;;;;;;;;;10.60;99.90;;;;;;4980029;28;229767;-72
2022/10/23 00:55:37;;;;;;;;;;;10.60;99.90;;;;;;5028494;28;19924;-74
2022/10/23 00:58:06;;;;;;;;;;;10.60;99.90;;;;;;4985651;28;158188;-73
2022/10/23 01:00:46;;;;;;;;;;;10.70;99.90;;;;;;5025725;28;19921;-74
2022/10/23 01:03:13;;;;;;;;;;;10.70;99.90;;;;;;4977413;28;111992;-72
2022/10/23 01:05:58;;;;;;;;;;;10.70;99.90;;;;;;5033977;28;19940;-74
2022/10/23 01:08:29;;;;;;;;;;;10.60;99.90;;;;;;4982715;28;250611;-73
2022/10/23 01:11:12;;;;;;;;;;;10.60;99.90;;;;;;5023720;28;19925;-72
2022/10/23 01:13:52;;;;;;;;;;;10.50;99.90;;;;;;4932384;28;807412;-74
2022/10/23 01:16:18;;;;;;;;;;;10.50;99.90;;;;;;5031783;28;19924;-73
2022/10/23 01:18:47;;;;;;;;;;;10.50;99.90;;;;;;4980821;28;176506;-74
2022/10/23 01:21:21;;;;;;;;;;;10.50;99.90;;;;;;5010602;28;19921;-73
2022/10/23 01:24:05;;;;;;;;;;;10.50;99.90;;;;;;4964360;28;223098;-72
2022/10/23 01:26:51;;;;;;;;;;;10.50;99.90;;;;;;5018929;28;20769;-73
2022/10/23 01:29:30;;;;;;;;;;;10.50;99.90;;;;;;4964136;28;192979;-75
2022/10/23 01:31:56;;;;;;;;;;;10.50;99.90;;;;;;5058501;28;20699;-73
2022/10/23 01:34:27;;;;;;;;;;;10.50;99.90;;;;;;4900586;28;3000573;-73
2022/10/23 01:36:54;;;;;;;;;;;10.50;99.90;;;;;;5025008;28;20447;-72
2022/10/23 01:39:28;;;;;;;;;;;10.40;99.90;;;;;;4953539;28;235702;-73
2022/10/23 01:41:56;;;;;;;;;;;10.40;99.90;;;;;;5023344;28;20563;-73
2022/10/23 01:44:25;;;;;;;;;;;10.40;99.90;;;;;;4956654;28;150249;-73
2022/10/23 01:46:52;;;;;;;;;;;10.40;99.90;;;;;;5021473;28;20673;-73
2022/10/23 01:49:19;;;;;;;;;;;10.30;99.90;;;;;;4977046;28;156107;-73
2022/10/23 01:51:48;;;;;;;;;;;10.40;99.90;;;;;;5020638;28;19936;-73
2022/10/23 01:54:15;;;;;;;;;;;10.40;99.90;;;;;;4959292;28;212911;-72
2022/10/23 01:56:44;;;;;;;;;;;10.40;99.90;;;;;;5023394;28;19931;-73
2022/10/23 01:59:13;;;;;;;;;;;10.40;99.90;;;;;;4983225;28;221571;-73
2022/10/23 02:01:41;;;;;;;;;;;10.40;99.90;;;;;;5024708;28;20298;-73
2022/10/23 02:04:09;;;;;;;;;;;10.40;99.90;;;;;;4980609;28;184348;-73
2022/10/23 02:06:35;;;;;;;;;;;10.40;99.90;;;;;;5030288;28;19925;-72
2022/10/23 02:09:01;;;;;;;;;;;10.40;99.90;;;;;;4972164;28;209877;-72
2022/10/23 02:11:27;;;;;;;;;;;10.40;99.90;;;;;;5008250;28;19922;-73
2022/10/23 02:14:02;;;;;;;;;;;10.40;99.90;;;;;;4982038;28;147506;-72
2022/10/23 02:16:47;;;;;;;;;;;10.40;99.90;;;;;;5020445;28;19924;-72
2022/10/23 02:19:22;;;;;;;;;;;10.40;99.90;;;;;;4952132;28;218551;-75
2022/10/23 02:21:57;;;;;;;;;;;10.30;99.90;;;;;;5027824;28;19925;-73
2022/10/23 02:24:50;;;;;;;;;;;10.30;99.90;;;;;;4991511;28;213022;-73
2022/10/23 02:27:18;;;;;;;;;;;10.30;99.90;;;;;;4976453;28;212445;-73
2022/10/23 02:29:47;;;;;;;;;;;10.30;99.90;;;;;;5008321;28;19921;-73
2022/10/23 02:32:14;;;;;;;;;;;10.30;99.90;;;;;;4979474;28;209108;-74
2022/10/23 02:34:40;;;;;;;;;;;10.20;99.90;;;;;;5006866;28;19921;-73
2022/10/23 02:37:06;;;;;;;;;;;10.20;99.90;;;;;;4883477;28;2964605;-73
2022/10/23 02:39:32;;;;;;;;;;;10.30;99.90;;;;;;4977341;28;206307;-73
2022/10/23 02:42:08;;;;;;;;;;;10.30;99.90;;;;;;5044630;28;207674;-74
2022/10/23 02:44:57;;;;;;;;;;;10.30;99.90;;;;;;4997798;28;19928;-72
2022/10/23 02:47:49;;;;;;;;;;;10.30;99.90;;;;;;4991587;28;219580;-73
2022/10/23 02:50:35;;;;;;;;;;;10.30;99.90;;;;;;5022100;28;19920;-72
2022/10/23 02:53:04;;;;;;;;;;;10.30;99.90;;;;;;4987528;28;229055;-72
2022/10/23 02:55:42;;;;;;;;;;;10.20;99.90;;;;;;5059302;28;19921;-73
2022/10/23 02:58:15;;;;;;;;;;;10.20;99.90;;;;;;5002391;28;214971;-73
2022/10/23 03:00:43;;;;;;;;;;;10.20;99.90;;;;;;5056656;28;19917;-73
2022/10/23 03:03:33;;;;;;;;;;;10.20;99.90;;;;;;4970739;28;205420;-73
2022/10/23 03:05:59;;;;;;;;;;;10.10;99.90;;;;;;4917445;29;19923;-74
2022/10/23 03:08:25;;;;;;;;;;;10.10;99.90;;;;;;4861787;28;906893;-73
2022/10/23 03:10:51;;;;;;;;;;;10.10;99.90;;;;;;4920952;29;20322;-73
2022/10/23 03:13:17;;;;;;;;;;;10.20;99.90;;;;;;4876027;29;242446;-74
2022/10/23 03:15:43;;;;;;;;;;;10.20;99.90;;;;;;4919250;29;20411;-74
2022/10/23 03:18:09;;;;;;;;;;;10.10;99.90;;;;;;4882587;29;134268;-72
2022/10/23 03:20:35;;;;;;;;;;;10.10;99.90;;;;;;4936718;28;19928;-73
2022/10/23 03:23:01;;;;;;;;;;;10.10;99.90;;;;;;4879533;29;217711;-73
2022/10/23 03:25:27;;;;;;;;;;;10.20;99.90;;;;;;4946598;28;19950;-73
2022/10/23 03:27:53;;;;;;;;;;;10.20;99.90;;;;;;4845596;29;210539;-73
2022/10/23 03:30:19;;;;;;;;;;;10.10;99.90;;;;;;4917118;28;20388;-72
2022/10/23 03:32:45;;;;;;;;;;;10.20;99.90;;;;;;4871401;28;145036;-73
2022/10/23 03:35:11;;;;;;;;;;;10.20;99.90;;;;;;4926697;29;19930;-73
2022/10/23 03:37:37;;;;;;;;;;;10.20;99.90;;;;;;4876846;29;208690;-74
2022/10/23 03:40:03;;;;;;;;;;;10.20;99.90;;;;;;4918560;29;19930;-73
2022/10/23 03:42:29;;;;;;;;;;;10.20;99.90;;;;;;4888597;28;162810;-74
2022/10/23 03:44:55;;;;;;;;;;;10.10;99.90;;;;;;5010560;28;19928;-74
2022/10/23 03:47:24;;;;;;;;;;;10.10;99.90;;;;;;4981155;28;162966;-74
2022/10/23 03:49:50;;;;;;;;;;;10.10;99.90;;;;;;5054881;28;19924;-72
2022/10/23 03:52:16;;;;;;;;;;;10.10;99.90;;;;;;4978653;28;208708;-72
2022/10/23 03:54:42;;;;;;;;;;;10.10;99.90;;;;;;5028743;28;19924;-73
2022/10/23 03:57:08;;;;;;;;;;;10.10;99.90;;;;;;4981688;28;208168;-72
2022/10/23 03:59:34;;;;;;;;;;;10.10;99.90;;;;;;5043346;28;19917;-73
2022/10/23 04:02:00;;;;;;;;;;;10.10;99.90;;;;;;5008305;28;231796;-74
2022/10/23 04:04:26;;;;;;;;;;;10.20;99.90;;;;;;4960738;28;208678;-73
2022/10/23 04:06:52;;;;;;;;;;;10.10;99.90;;;;;;5013512;28;19917;-72
2022/10/23 04:09:18;;;;;;;;;;;10.10;99.90;;;;;;4967260;28;208611;-73
2022/10/23 04:11:44;;;;;;;;;;;10.10;99.90;;;;;;5029991;28;19929;-74
2022/10/23 04:14:11;;;;;;;;;;;10.10;99.90;;;;;;4957897;28;207509;-74
2022/10/23 04:16:36;;;;;;;;;;;10.10;99.90;;;;;;5056419;28;19917;-73
2022/10/23 04:19:02;;;;;;;;;;;10.10;99.90;;;;;;4965957;28;253678;-74
2022/10/23 04:21:28;;;;;;;;;;;10.10;99.90;;;;;;5043652;28;20267;-73
2022/10/23 04:23:54;;;;;;;;;;;10.00;99.90;;;;;;4973861;28;229568;-73
2022/10/23 04:26:20;;;;;;;;;;;10.10;99.90;;;;;;5056133;28;19921;-73
2022/10/23 04:28:46;;;;;;;;;;;10.10;99.90;;;;;;4971646;28;207172;-72
2022/10/23 04:31:12;;;;;;;;;;;10.00;99.90;;;;;;5019615;28;19975;-74
2022/10/23 04:33:38;;;;;;;;;;;10.00;99.90;;;;;;4981714;28;140248;-73
2022/10/23 04:36:04;;;;;;;;;;;10.00;99.90;;;;;;5026857;28;19917;-73
2022/10/23 04:38:30;;;;;;;;;;;10.00;99.90;;;;;;4986315;28;144235;-74
2022/10/23 04:40:56;;;;;;;;;;;10.00;99.90;;;;;;5033545;28;20425;-73
2022/10/23 04:43:22;;;;;;;;;;;10.00;99.90;;;;;;4987162;28;118146;-73
2022/10/23 04:45:49;;;;;;;;;;;9.90;99.90;;;;;;5003430;28;19951;-73
2022/10/23 04:48:15;;;;;;;;;;;9.90;99.90;;;;;;4985766;28;210778;-73
2022/10/23 04:50:41;;;;;;;;;;;9.90;99.90;;;;;;5024687;28;20301;-74
2022/10/23 04:53:07;;;;;;;;;;;9.90;99.90;;;;;;4959719;28;143749;-71
2022/10/23 04:55:33;;;;;;;;;;;9.90;99.90;;;;;;5018680;28;19917;-73
2022/10/23 04:57:59;;;;;;;;;;;9.80;99.90;;;;;;4936936;28;889600;-73
2022/10/23 05:00:26;;;;;;;;;;;9.80;99.90;;;;;;5011433;28;19979;-74
2022/10/23 05:02:52;;;;;;;;;;;9.80;99.90;;;;;;4957627;28;189336;-74
2022/10/23 05:05:18;;;;;;;;;;;9.80;99.90;;;;;;5023547;28;19921;-74
2022/10/23 05:07:44;;;;;;;;;;;9.90;99.90;;;;;;4963109;28;158690;-71
2022/10/23 05:10:10;;;;;;;;;;;9.90;99.90;;;;;;5018582;28;20404;-71
2022/10/23 05:12:36;;;;;;;;;;;9.90;99.90;;;;;;4974209;28;208531;-73
2022/10/23 05:15:02;;;;;;;;;;;10.00;99.90;;;;;;5026173;28;19921;-74
2022/10/23 05:17:33;;;;;;;;;;;9.90;99.90;;;;;;4981958;28;187347;-73
2022/10/23 05:20:00;;;;;;;;;;;9.90;99.90;;;;;;5021890;28;19929;-73
2022/10/23 05:22:29;;;;;;;;;;;10.00;99.90;;;;;;4984175;28;180719;-73
2022/10/23 05:24:56;;;;;;;;;;;10.00;99.90;;;;;;5053067;28;19917;-73
2022/10/23 05:27:22;;;;;;;;;;;10.00;99.90;;;;;;4965909;28;171212;-73
2022/10/23 05:29:48;;;;;;;;;;;9.90;99.90;;;;;;5026949;28;19921;-73
2022/10/23 05:32:15;;;;;;;;;;;9.90;99.90;;;;;;4974717;28;225675;-73
2022/10/23 05:34:41;;;;;;;;;;;9.90;99.90;;;;;;5013225;28;19921;-73
2022/10/23 05:37:08;;;;;;;;;;;9.90;99.90;;;;;;4981035;28;206950;-73
2022/10/23 05:39:34;;;;;;;;;;;9.90;99.90;;;;;;5018367;28;19924;-73
2022/10/23 05:42:00;;;;;;;;;;;9.90;99.90;;;;;;5012977;28;208505;-72
2022/10/23 05:44:26;;;;;;;;;;;9.90;99.90;;;;;;4988010;28;203355;-73
2022/10/23 05:46:52;;;;;;;;;;;9.90;99.90;;;;;;5031439;28;19928;-74
2022/10/23 05:49:18;;;;;;;;;;;9.90;99.90;;;;;;4966806;28;240199;-73
2022/10/23 05:51:44;;;;;;;;;;;9.90;99.90;;;;;;5007442;28;19925;-73
2022/10/23 05:54:10;;;;;;;;;;;9.80;99.90;;;;;;4977036;28;171284;-74
2022/10/23 05:56:37;;;;;;;;;;;9.90;99.90;;;;;;5029333;28;19932;-74
2022/10/23 05:59:06;;;;;;;;;;;9.90;99.90;;;;;;4977625;28;162143;-72
2022/10/23 06:01:32;;;;;;;;;;;9.90;99.90;;;;;;5025834;28;19935;-73
2022/10/23 06:03:59;;;;;;;;;;;9.90;99.90;;;;;;4973455;28;189885;-73
2022/10/23 06:06:25;;;;;;;;;;;9.90;99.90;;;;;;5030822;28;20366;-73
2022/10/23 06:08:54;;;;;;;;;;;9.90;99.90;;;;;;4960047;28;225617;-73
2022/10/23 06:11:20;;;;;;;;;;;9.90;99.90;;;;;;5025442;28;20007;-72
2022/10/23 06:13:47;;;;;;;;;;;9.90;99.90;;;;;;4962316;28;198261;-73
2022/10/23 06:16:17;;;;;;;;;;;10.00;99.90;;;;;;5022504;28;19921;-73
2022/10/23 06:18:44;;;;;;;;;;;10.00;99.90;;;;;;4967868;28;217116;-72
2022/10/23 06:21:11;;;;;;;;;;;10.00;99.90;;;;;;5021656;28;19917;-72
2022/10/23 06:23:38;;;;;;;;;;;10.00;99.90;;;;;;4969242;28;163461;-73
2022/10/23 06:26:04;;;;;;;;;;;10.00;99.90;;;;;;5019426;28;21242;-72
2022/10/23 06:28:30;;;;;;;;;;;10.00;99.90;;;;;;4960109;28;237322;-73
2022/10/23 06:30:56;;;;;;;;;;;10.10;99.90;;;;;;5021253;28;19925;-72
2022/10/23 06:33:22;;;;;;;;;;;10.00;99.90;;;;;;4980873;28;208094;-72
2022/10/23 06:35:48;;;;;;;;;;;10.00;99.90;;;;;;5026425;28;19921;-72
2022/10/23 06:38:14;;;;;;;;;;;10.10;99.90;;;;;;4980412;28;201947;-72
2022/10/23 06:40:40;;;;;;;;;;;10.10;99.90;;;;;;5043751;28;19928;-74
2022/10/23 06:43:07;;;;;;;;;;;10.20;99.90;;;;;;4979503;28;246249;-72
2022/10/23 06:45:33;;;;;;;;;;;10.20;99.90;;;;;;5024732;28;19925;-73
2022/10/23 06:47:59;;;;;;;;;;;10.20;99.90;;;;;;4978388;28;60785;-73
2022/10/23 06:50:26;;;;;;;;;;;10.30;99.90;;;;;;5032663;28;19917;-73
2022/10/23 06:52:53;;;;;;;;;;;10.30;99.90;;;;;;5003831;28;207826;-73
2022/10/23 06:55:19;;;;;;;;;;;10.40;99.90;;;;;;5050091;28;19917;-73
2022/10/23 06:57:45;;;;;;;;;;;10.40;99.90;;;;;;4973713;28;245788;-72
2022/10/23 07:00:12;;;;;;;;;;;10.40;99.90;;;;;;5023293;28;19924;-72
2022/10/23 07:02:40;;;;;;;;;;;10.40;99.90;;;;;;4975898;28;103904;-73
2022/10/23 07:05:07;;;;;;;;;;;10.50;99.90;;;;;;5049073;28;19925;-73
2022/10/23 07:07:32;;;;;;;;;;;10.50;99.90;;;;;;4984946;28;213928;-73
2022/10/23 07:09:58;;;;;;;;;;;10.50;99.90;;;;;;5044168;28;20371;-73
2022/10/23 07:12:24;;;;;;;;;;;10.50;99.90;;;;;;4981456;28;186732;-72
2022/10/23 07:14:50;;;;;;;;;;;10.60;99.90;;;;;;5007376;28;19920;-74
2022/10/23 07:17:16;;;;;;;;;;;10.60;99.90;;;;;;4972461;28;231849;-73
2022/10/23 07:19:42;;;;;;;;;;;10.70;99.90;;;;;;5013024;28;19917;-73
2022/10/23 07:22:08;;;;;;;;;;;10.70;99.90;;;;;;4976535;28;214244;-71
2022/10/23 07:24:37;;;;;;;;;;;10.70;99.90;;;;;;5034372;28;19917;-74
2022/10/23 07:27:03;;;;;;;;;;;10.80;99.90;;;;;;5032630;28;219540;-75
2022/10/23 07:29:29;;;;;;;;;;;10.90;99.90;;;;;;4950678;28;710223;-73
2022/10/23 07:31:56;;;;;;;;;;;10.90;99.90;;;;;;5021935;28;19929;-74
2022/10/23 07:34:23;;;;;;;;;;;11.00;99.90;;;;;;4967142;28;188506;-74
2022/10/23 07:36:49;;;;;;;;;;;11.00;99.90;;;;;;5026403;28;19920;-73
2022/10/23 07:39:15;;;;;;;;;;;11.00;99.90;;;;;;4975084;28;185580;-73
2022/10/23 07:41:41;;;;;;;;;;;11.10;99.90;;;;;;5025838;28;19921;-73
2022/10/23 07:44:07;;;;;;;;;;;11.20;99.90;;;;;;4994523;28;192137;-73
2022/10/23 07:46:37;;;;;;;;;;;11.20;99.90;;;;;;5012522;28;19932;-74
2022/10/23 07:49:03;;;;;;;;;;;11.20;99.90;;;;;;4866215;28;2998956;-74
2022/10/23 07:51:29;;;;;;;;;;;11.30;99.90;;;;;;5026226;28;19974;-75
2022/10/23 07:53:56;;;;;;;;;;;11.40;99.90;;;;;;4928154;28;225622;-74
2022/10/23 07:56:28;;;;;;;;;;;11.40;99.90;;;;;;5012548;28;19921;-74
2022/10/23 07:58:54;;;;;;;;;;;11.40;99.90;;;;;;4983332;28;96900;-73
2022/10/23 08:01:20;;;;;;;;;;;11.50;99.90;;;;;;5025457;28;19920;-74
2022/10/23 08:03:46;;;;;;;;;;;11.50;99.90;;;;;;4974410;28;169017;-74
2022/10/23 08:06:12;;;;;;;;;;;11.60;99.90;;;;;;5026053;28;20348;-73
2022/10/23 08:08:38;;;;;;;;;;;11.70;99.90;;;;;;4958968;28;209372;-74
2022/10/23 08:11:04;;;;;;;;;;;11.70;99.90;;;;;;5026692;28;19917;-74
2022/10/23 08:13:30;;;;;;;;;;;11.70;99.90;;;;;;4946168;28;205563;-73
2022/10/23 08:15:57;;;;;;;;;;;11.80;99.90;;;;;;5015598;28;19925;-73
2022/10/23 08:18:23;;;;;;;;;;;11.80;99.90;;;;;;4988459;28;209389;-74
2022/10/23 08:20:51;;;;;;;;;;;11.90;99.90;;;;;;5059300;28;19925;-73
2022/10/23 08:23:17;;;;;;;;;;;11.90;99.90;;;;;;4971672;28;209140;-74
2022/10/23 08:25:44;;;;;;;;;;;12.00;99.90;;;;;;5017488;28;19924;-74
2022/10/23 08:28:10;;;;;;;;;;;12.10;99.90;;;;;;4995454;28;204894;-73
2022/10/23 08:30:36;;;;;;;;;;;12.20;99.90;;;;;;5019296;28;19943;-72
2022/10/23 08:33:03;;;;;;;;;;;12.30;99.90;;;;;;5006270;28;140887;-73
2022/10/23 08:35:29;;;;;;;;;;;12.40;99.90;;;;;;5049462;28;19916;-74
2022/10/23 08:37:55;;;;;;;;;;;12.50;99.90;;;;;;4975632;28;209192;-73
2022/10/23 08:40:22;;;;;;;;;;;12.60;99.90;;;;;;5009407;28;20385;-74
2022/10/23 08:43:08;;;;;;;;;;;12.60;99.90;;;;;;4975942;28;345021;-74
2022/10/23 08:45:46;;;;;;;;;;;12.70;99.90;;;;;;5005803;28;19955;-75
2022/10/23 08:48:32;;;;;;;;;;;12.80;99.90;;;;;;4965145;28;248155;-73
2022/10/23 08:51:04;;;;;;;;;;;12.80;99.90;;;;;;5030584;28;20394;-74
2022/10/23 08:53:34;;;;;;;;;;;12.90;99.90;;;;;;4968692;28;206001;-74
2022/10/23 08:56:11;;;;;;;;;;;13.00;99.90;;;;;;5037410;28;19924;-73
2022/10/23 08:59:00;;;;;;;;;;;13.10;99.90;;;;;;4972833;28;219810;-74
2022/10/23 09:01:30;;;;;;;;;;;13.10;99.90;;;;;;5043166;28;19921;-74
2022/10/23 09:03:56;;;;;;;;;;;13.20;99.90;;;;;;4959096;28;155938;-74
2022/10/23 09:06:32;;;;;;;;;;;13.30;99.90;;;;;;5010582;28;19968;-73
2022/10/23 09:09:07;;;;;;;;;;;13.30;99.90;;;;;;4993114;28;160819;-75
2022/10/23 09:11:36;;;;;;;;;;;13.50;99.90;;;;;;5033779;28;19916;-74
2022/10/23 09:14:10;;;;;;;;;;;13.50;99.90;;;;;;4960743;28;177468;-74
2022/10/23 09:16:45;;;;;;;;;;;13.70;99.90;;;;;;5045624;28;20060;-73
2022/10/23 09:19:14;;;;;;;;;;;13.80;99.90;;;;;;4983312;28;116138;-73
2022/10/23 09:21:41;;;;;;;;;;;13.90;99.90;;;;;;5029806;28;19985;-74
2022/10/23 09:24:12;;;;;;;;;;;14.00;99.90;;;;;;4979604;28;206601;-74
2022/10/23 09:26:41;;;;;;;;;;;14.00;99.90;;;;;;5044038;28;19917;-73
2022/10/23 09:29:18;;;;;;;;;;;14.10;99.90;;;;;;4958967;28;211125;-71
2022/10/23 09:31:51;;;;;;;;;;;14.20;99.90;;;;;;5035841;28;19932;-72
2022/10/23 09:34:24;;;;;;;;;;;14.30;99.90;;;;;;4941415;28;227778;-71
2022/10/23 09:36:51;;;;;;;;;;;14.30;99.90;;;;;;5041259;28;19924;-71
2022/10/23 09:39:22;;;;;;;;;;;14.30;99.90;;;;;;4985575;28;204069;-72
2022/10/23 09:41:48;;;;;;;;;;;14.30;99.90;;;;;;5026679;28;19924;-71
2022/10/23 09:44:22;;;;;;;;;;;14.40;99.90;;;;;;4963574;28;99826;-71
2022/10/23 09:46:58;;;;;;;;;;;14.40;99.90;;;;;;5060272;28;20404;-71
2022/10/23 09:49:26;;;;;;;;;;;14.50;99.90;;;;;;4956049;28;245409;-71
2022/10/23 09:52:00;;;;;;;;;;;14.50;99.90;;;;;;5024585;28;20412;-71
2022/10/23 09:54:26;;;;;;;;;;;14.60;99.90;;;;;;4982524;28;208655;-72
2022/10/23 09:56:53;;;;;;;;;;;14.60;99.90;;;;;;5026876;28;19920;-71
2022/10/23 09:59:22;;;;;;;;;;;14.60;99.90;;;;;;4953544;28;215147;-72
2022/10/23 10:01:53;;;;;;;;;;;14.60;99.90;;;;;;5013025;28;19921;-71
2022/10/23 10:04:30;;;;;;;;;;;14.70;99.90;;;;;;4985725;28;183068;-71
2022/10/23 10:06:57;;;;;;;;;;;14.70;99.90;;;;;;5007518;28;20303;-70
2022/10/23 10:09:23;;;;;;;;;;;14.90;99.90;;;;;;4962041;28;211921;-70
2022/10/23 10:11:51;;;;;;;;;;;14.90;99.90;;;;;;5021011;28;20390;-71
2022/10/23 10:14:26;;;;;;;;;;;15.00;99.90;;;;;;4979455;28;103271;-72
2022/10/23 10:17:03;;;;;;;;;;;15.10;99.90;;;;;;5005760;28;20303;-70
2022/10/23 10:19:59;;;;;;;;;;;15.20;99.90;;;;;;4939207;28;211956;-70
2022/10/23 10:22:31;;;;;;;;;;;15.30;99.90;;;;;;4980020;28;230147;-72
2022/10/23 10:25:15;;;;;;;;;;;15.50;99.90;;;;;;5047488;28;19936;-72
2022/10/23 10:28:00;;;;;;;;;;;15.60;99.90;;;;;;5027622;28;19917;-72
2022/10/23 10:30:32;;;;;;;;;;;15.70;99.90;;;;;;4989331;28;113005;-71
2022/10/23 10:32:58;;;;;;;;;;;15.90;99.90;;;;;;5031781;28;19925;-71
2022/10/23 10:35:36;;;;;;;;;;;15.90;99.90;;;;;;5014819;28;20653;-72
2022/10/23 10:38:17;;;;;;;;;;;16.00;99.90;;;;;;4974344;28;214633;-71
2022/10/23 10:41:03;;;;;;;;;;;16.10;99.90;;;;;;5011303;28;19918;-71
2022/10/23 10:43:48;;;;;;;;;;;16.20;99.90;;;;;;5014012;28;148050;-71
2022/10/23 10:46:26;;;;;;;;;;;16.30;99.90;;;;;;5027147;28;19925;-71
2022/10/23 10:49:00;;;;;;;;;;;16.30;99.90;;;;;;4982015;28;206988;-72
2022/10/23 10:51:37;;;;;;;;;;;16.30;99.90;;;;;;5023030;28;19932;-71
2022/10/23 10:54:22;;;;;;;;;;;16.30;99.90;;;;;;4986600;28;194873;-72
2022/10/23 10:56:48;;;;;;;;;;;16.30;99.90;;;;;;5025736;28;19924;-71
2022/10/23 10:59:29;;;;;;;;;;;16.30;99.90;;;;;;4963435;28;182997;-72
2022/10/23 11:02:21;;;;;;;;;;;16.40;99.90;;;;;;5026431;28;19939;-72
2022/10/23 11:04:53;;;;;;;;;;;16.30;99.90;;;;;;4951003;28;146978;-72
2022/10/23 11:07:20;;;;;;;;;;;16.30;99.90;;;;;;5023995;28;19925;-71
2022/10/23 11:09:47;;;;;;;;;;;16.30;99.90;;;;;;4990504;28;206269;-71
2022/10/23 11:12:23;;;;;;;;;;;16.30;99.90;;;;;;5022618;28;20539;-71
2022/10/23 11:14:52;;;;;;;;;;;16.30;99.90;;;;;;4978365;28;221084;-72
2022/10/23 11:17:26;;;;;;;;;;;16.20;99.90;;;;;;5021347;28;19948;-71
2022/10/23 11:19:52;;;;;;;;;;;16.20;99.90;;;;;;4953683;28;206611;-71
2022/10/23 11:22:21;;;;;;;;;;;16.10;99.90;;;;;;5024121;28;19959;-72
2022/10/23 11:25:06;;;;;;;;;;;16.20;99.90;;;;;;4975802;28;194869;-72
2022/10/23 11:27:50;;;;;;;;;;;16.20;99.90;;;;;;5021681;28;20397;-71
2022/10/23 11:30:23;;;;;;;;;;;16.10;99.90;;;;;;4971161;28;203889;-70
2022/10/23 11:33:01;;;;;;;;;;;16.10;99.90;;;;;;4968398;28;207146;-72
2022/10/23 11:35:36;;;;;;;;;;;16.00;99.90;;;;;;5016926;28;19932;-72
2022/10/23 11:38:14;;;;;;;;;;;16.00;99.90;;;;;;4981858;28;205940;-71
2022/10/23 11:40:44;;;;;;;;;;;15.90;99.90;;;;;;5034054;28;19996;-71
2022/10/23 11:43:10;;;;;;;;;;;15.90;99.90;;;;;;5003568;28;208635;-72
2022/10/23 11:45:40;;;;;;;;;;;15.80;99.90;;;;;;5021540;28;19925;-71
2022/10/23 11:48:12;;;;;;;;;;;15.90;99.90;;;;;;5002737;28;20397;-72
2022/10/23 11:50:45;;;;;;;;;;;15.90;99.90;;;;;;5024091;28;19920;-72
2022/10/23 11:53:25;;;;;;;;;;;15.90;99.90;;;;;;5052098;28;19925;-72
2022/10/23 11:55:59;;;;;;;;;;;15.90;99.90;;;;;;5022030;28;20386;-72
2022/10/23 11:58:44;;;;;;;;;;;15.90;99.90;;;;;;5033906;28;19921;-71
2022/10/23 12:01:26;;;;;;;;;;;16.00;99.90;;;;;;4970669;28;208661;-72
2022/10/23 12:04:11;;;;;;;;;;;16.00;99.90;;;;;;5030931;28;19921;-71
2022/10/23 12:06:41;;;;;;;;;;;16.00;99.90;;;;;;5056097;28;19932;-72
2022/10/23 12:09:21;;;;;;;;;;;16.00;99.90;;;;;;5031252;28;19928;-71
2022/10/23 12:11:50;;;;;;;;;;;16.00;99.90;;;;;;5048001;28;19932;-72
2022/10/23 12:14:30;;;;;;;;;;;16.00;99.90;;;;;;4967771;28;217467;-71
2022/10/23 12:16:56;;;;;;;;;;;16.10;99.90;;;;;;5027471;28;19928;-71
2022/10/23 12:19:23;;;;;;;;;;;16.10;99.90;;;;;;5053028;28;19928;-71
2022/10/23 12:21:50;;;;;;;;;;;16.10;99.90;;;;;;5020029;28;19943;-72
2022/10/23 12:24:38;;;;;;;;;;;16.10;99.90;;;;;;5023794;28;19959;-71
2022/10/23 12:27:18;;;;;;;;;;;16.10;99.90;;;;;;4957113;28;206736;-71
2022/10/23 12:29:47;;;;;;;;;;;16.10;99.90;;;;;;4982862;28;176101;-73
2022/10/23 12:32:16;;;;;;;;;;;16.20;99.90;;;;;;5021083;28;19947;-71
2022/10/23 12:34:45;;;;;;;;;;;16.20;99.90;;;;;;4972187;28;212517;-71
2022/10/23 12:37:14;;;;;;;;;;;16.20;99.90;;;;;;5006836;28;20425;-71
2022/10/23 12:39:40;;;;;;;;;;;16.20;99.90;;;;;;4973421;28;189571;-71
2022/10/23 12:42:16;;;;;;;;;;;16.20;99.90;;;;;;5007613;28;19936;-72
2022/10/23 12:44:42;;;;;;;;;;;16.20;99.90;;;;;;4966104;28;254480;-72
2022/10/23 12:47:14;;;;;;;;;;;16.20;99.90;;;;;;5006897;28;19928;-72
2022/10/23 12:49:46;;;;;;;;;;;16.20;99.90;;;;;;4970740;28;217587;-71
2022/10/23 12:52:19;;;;;;;;;;;16.20;99.90;;;;;;5023272;28;19921;-72
2022/10/23 12:54:46;;;;;;;;;;;16.20;99.90;;;;;;4977286;28;209013;-71
2022/10/23 12:57:18;;;;;;;;;;;16.20;99.90;;;;;;5022652;28;19939;-72
2022/10/23 12:59:44;;;;;;;;;;;16.20;99.90;;;;;;4973226;28;210739;-72
2022/10/23 13:02:27;;;;;;;;;;;16.20;99.90;;;;;;5038624;28;19921;-72
2022/10/23 13:04:57;;;;;;;;;;;16.20;99.90;;;;;;4945105;28;232945;-70
2022/10/23 13:07:31;;;;;;;;;;;16.20;99.90;;;;;;5034098;28;19936;-72
2022/10/23 13:09:58;;;;;;;;;;;16.20;99.90;;;;;;4962890;28;159318;-71
2022/10/23 13:12:32;;;;;;;;;;;16.30;99.90;;;;;;5019924;28;19940;-72
2022/10/23 13:15:07;;;;;;;;;;;16.30;99.90;;;;;;4983489;28;142037;-72
2022/10/23 13:17:33;;;;;;;;;;;16.30;99.90;;;;;;5024069;28;19929;-72
2022/10/23 13:20:17;;;;;;;;;;;16.40;99.90;;;;;;4973662;28;146838;-71
2022/10/23 13:22:47;;;;;;;;;;;16.40;99.90;;;;;;4999489;28;19917;-71
2022/10/23 13:25:23;;;;;;;;;;;16.40;99.90;;;;;;5002578;28;206761;-70
2022/10/23 13:27:50;;;;;;;;;;;16.40;99.90;;;;;;5023746;28;19936;-72
2022/10/23 13:30:28;;;;;;;;;;;16.40;99.90;;;;;;4976166;28;211039;-72
2022/10/23 13:32:54;;;;;;;;;;;16.40;99.90;;;;;;5006809;28;19928;-71
2022/10/23 13:35:21;;;;;;;;;;;16.40;99.90;;;;;;4963796;28;239693;-71
2022/10/23 13:37:47;;;;;;;;;;;16.40;99.90;;;;;;5041901;28;19921;-71
2022/10/23 13:40:22;;;;;;;;;;;16.40;99.90;;;;;;4965878;28;209461;-71
2022/10/23 13:42:49;;;;;;;;;;;16.40;99.90;;;;;;5006558;28;20318;-72
2022/10/23 13:45:18;;;;;;;;;;;16.40;99.90;;;;;;4975801;28;131761;-73
2022/10/23 13:47:44;;;;;;;;;;;16.40;99.90;;;;;;5012807;28;19917;-72
2022/10/23 13:50:10;;;;;;;;;;;16.40;99.90;;;;;;4975100;28;137486;-72
2022/10/23 13:52:36;;;;;;;;;;;16.40;99.90;;;;;;5006677;28;20318;-72
2022/10/23 13:55:22;;;;;;;;;;;16.50;99.90;;;;;;4957453;28;208209;-72
2022/10/23 13:57:48;;;;;;;;;;;16.40;99.90;;;;;;5018484;28;19944;-72
2022/10/23 14:00:14;;;;;;;;;;;16.40;99.90;;;;;;4976504;28;246539;-71
2022/10/23 14:02:40;;;;;;;;;;;16.40;99.90;;;;;;5014824;28;19924;-72
2022/10/23 14:05:06;;;;;;;;;;;16.40;99.90;;;;;;4967839;28;168895;-71
2022/10/23 14:07:32;;;;;;;;;;;16.40;99.90;;;;;;5029237;28;19924;-72
2022/10/23 14:09:58;;;;;;;;;;;16.40;99.90;;;;;;4978133;28;130641;-71
2022/10/23 14:12:24;;;;;;;;;;;16.40;99.90;;;;;;5017198;28;19993;-71
2022/10/23 14:14:50;;;;;;;;;;;16.40;99.90;;;;;;4995926;28;214631;-71
2022/10/23 14:17:17;;;;;;;;;;;16.40;99.90;;;;;;5036682;28;20307;-72
2022/10/23 14:19:43;;;;;;;;;;;16.30;99.90;;;;;;4995521;28;224126;-71
2022/10/23 14:22:09;;;;;;;;;;;16.30;99.90;;;;;;5022315;28;20020;-71
2022/10/23 14:24:34;;;;;;;;;;;16.30;99.90;;;;;;4953113;28;233504;-71
2022/10/23 14:27:00;;;;;;;;;;;16.30;99.90;;;;;;5022877;28;20297;-71